sensor_id;sensor_type;location;lat;lon;timestamp;temperature;humidity
2893;DHT22;1456;51.840;12.184;2024-03-02T00:01:11;7.40;99.90
2893;DHT22;1456;51.840;12.184;2024-03-02T00:03:38;7.40;99.90
2893;DHT22;1456;51.840;12.184;2024-03-02T00:06:04;7.50;99.90
2893;DHT22;1456;51.840;12.184;2024-03-02T00:08:29;7.40;99.90
2893;DHT22;1456;51.840;12.184;2024-03-02T00:11:00;7.50;99.90
2893;DHT22;1456;51.840;12.184;2024-03-02T00:13:26;7.50;99.90
2893;DHT22;1456;51.840;12.184;2024-03-02T00:15:56;7.50;99.90
2893;DHT22;1456;51.840;12.184;2024-03-02T00:18:26;7.60;99.90
2893;DHT22;1456;51.840;12.184;2024-03-02T00:20:53;7.50;99.90
2893;DHT22;1456;51.840;12.184;2024-03-02T00:23:20;7.50;99.90
2893;DHT22;1456;51.840;12.184;2024-03-02T00:25:54;7.50;99.90
2893;DHT22;1456;51.840;12.184;2024-03-02T00:28:34;7.60;99.90
2893;DHT22;1456;51.840;12.184;2024-03-02T00:31:07;7.60;99.90
2893;DHT22;1456;51.840;12.184;2024-03-02T00:33:37;7.70;99.90
2893;DHT22;1456;51.840;12.184;2024-03-02T00:36:06;7.70;99.90
2893;DHT22;1456;51.840;12.184;2024-03-02T00:38:33;7.70;99.90
2893;DHT22;1456;51.840;12.184;2024-03-02T00:41:03;7.70;99.90
2893;DHT22;1456;51.840;12.184;2024-03-02T00:46:12;7.80;99.90
2893;DHT22;1456;51.840;12.184;2024-03-02T00:48:40;7.90;99.90
2893;DHT22;1456;51.840;12.184;2024-03-02T00:51:08;7.80;99.90
2893;DHT22;1456;51.840;12.184;2024-03-02T00:53:34;7.80;99.90
2893;DHT22;1456;51.840;12.184;2024-03-02T00:56:01;7.80;99.90
2893;DHT22;1456;51.840;12.184;2024-03-02T00:58:27;7.80;99.90
2893;DHT22;1456;51.840;12.184;2024-03-02T01:00:52;7.80;99.90
2893;DHT22;1456;51.840;12.184;2024-03-02T01:03:18;7.80;99.90
2893;DHT22;1456;51.840;12.184;2024-03-02T01:05:44;7.80;99.90
2893;DHT22;1456;51.840;12.184;2024-03-02T01:08:10;7.90;99.90
2893;DHT22;1456;51.840;12.184;2024-03-02T01:10:36;8.00;99.90
2893;DHT22;1456;51.840;12.184;2024-03-02T01:13:07;7.90;99.90
2893;DHT22;1456;51.840;12.184;2024-03-02T01:15:33;7.90;99.90
2893;DHT22;1456;51.840;12.184;2024-03-02T01:17:59;7.90;99.90
2893;DHT22;1456;51.840;12.184;2024-03-02T01:20:24;7.90;99.90
2893;DHT22;1456;51.840;12.184;2024-03-02T01:22:50;7.90;99.90
2893;DHT22;1456;51.840;12.184;2024-03-02T01:25:16;8.00;99.90
2893;DHT22;1456;51.840;12.184;2024-03-02T01:27:41;8.10;99.90
2893;DHT22;1456;51.840;12.184;2024-03-02T01:30:07;8.10;99.90
2893;DHT22;1456;51.840;12.184;2024-03-02T01:32:33;7.90;99.90
2893;DHT22;1456;51.840;12.184;2024-03-02T01:34:58;7.90;99.90
2893;DHT22;1456;51.840;12.184;2024-03-02T01:37:24;7.90;99.90
2893;DHT22;1456;51.840;12.184;2024-03-02T01:39:50;8.00;99.90
2893;DHT22;1456;51.840;12.184;2024-03-02T01:42:15;7.90;99.90
2893;DHT22;1456;51.840;12.184;2024-03-02T01:44:41;8.00;99.90
2893;DHT22;1456;51.840;12.184;2024-03-02T01:47:07;8.00;99.90
2893;DHT22;1456;51.840;12.184;2024-03-02T01:49:32;7.90;99.90
2893;DHT22;1456;51.840;12.184;2024-03-02T01:51:59;7.90;99.90
2893;DHT22;1456;51.840;12.184;2024-03-02T01:54:25;8.00;99.90
2893;DHT22;1456;51.840;12.184;2024-03-02T01:56:51;8.00;99.90
2893;DHT22;1456;51.840;12.184;2024-03-02T01:59:16;8.00;99.90
2893;DHT22;1456;51.840;12.184;2024-03-02T02:01:42;8.00;99.90
2893;DHT22;1456;51.840;12.184;2024-03-02T02:04:07;8.00;99.90
2893;DHT22;1456;51.840;12.184;2024-03-02T02:06:33;8.00;99.90
2893;DHT22;1456;51.840;12.184;2024-03-02T02:08:59;7.90;99.90
2893;DHT22;1456;51.840;12.184;2024-03-02T02:11:25;8.00;99.90
2893;DHT22;1456;51.840;12.184;2024-03-02T02:13:50;8.00;99.90
2893;DHT22;1456;51.840;12.184;2024-03-02T02:16:16;7.90;99.90
2893;DHT22;1456;51.840;12.184;2024-03-02T02:18:41;7.90;99.90
2893;DHT22;1456;51.840;12.184;2024-03-02T02:21:07;7.90;99.90
2893;DHT22;1456;51.840;12.184;2024-03-02T02:23:33;7.90;99.90
2893;DHT22;1456;51.840;12.184;2024-03-02T02:25:59;8.00;99.90
2893;DHT22;1456;51.840;12.184;2024-03-02T02:28:24;7.90;99.90
2893;DHT22;1456;51.840;12.184;2024-03-02T02:30:50;8.00;99.90
2893;DHT22;1456;51.840;12.184;2024-03-02T02:33:16;8.00;99.90
2893;DHT22;1456;51.840;12.184;2024-03-02T02:35:41;8.00;99.90
2893;DHT22;1456;51.840;12.184;2024-03-02T02:38:07;7.90;99.90
2893;DHT22;1456;51.840;12.184;2024-03-02T02:40:32;8.00;99.90
2893;DHT22;1456;51.840;12.184;2024-03-02T02:42:58;8.00;99.90
2893;DHT22;1456;51.840;12.184;2024-03-02T02:45:27;8.10;99.90
2893;DHT22;1456;51.840;12.184;2024-03-02T02:47:52;8.00;99.90
2893;DHT22;1456;51.840;12.184;2024-03-02T02:50:18;8.00;99.90
2893;DHT22;1456;51.840;12.184;2024-03-02T02:52:43;8.00;99.90
2893;DHT22;1456;51.840;12.184;2024-03-02T02:55:11;7.90;99.90
2893;DHT22;1456;51.840;12.184;2024-03-02T02:57:37;7.90;99.90
2893;DHT22;1456;51.840;12.184;2024-03-02T03:00:09;8.00;99.90
2893;DHT22;1456;51.840;12.184;2024-03-02T03:02:39;7.90;99.90
2893;DHT22;1456;51.840;12.184;2024-03-02T03:05:07;7.90;99.90
2893;DHT22;1456;51.840;12.184;2024-03-02T03:07:33;7.80;99.90
2893;DHT22;1456;51.840;12.184;2024-03-02T03:10:00;7.80;99.90
2893;DHT22;1456;51.840;12.184;2024-03-02T03:12:26;7.80;99.90
2893;DHT22;1456;51.840;12.184;2024-03-02T03:14:52;7.80;99.90
2893;DHT22;1456;51.840;12.184;2024-03-02T03:17:17;7.80;99.90
2893;DHT22;1456;51.840;12.184;2024-03-02T03:19:43;7.70;99.90
2893;DHT22;1456;51.840;12.184;2024-03-02T03:22:09;7.80;99.90
2893;DHT22;1456;51.840;12.184;2024-03-02T03:24:35;7.90;99.90
2893;DHT22;1456;51.840;12.184;2024-03-02T03:27:00;7.80;99.90
2893;DHT22;1456;51.840;12.184;2024-03-02T03:29:26;7.80;99.90
2893;DHT22;1456;51.840;12.184;2024-03-02T03:31:51;7.80;99.90
2893;DHT22;1456;51.840;12.184;2024-03-02T03:34:17;7.80;99.90
2893;DHT22;1456;51.840;12.184;2024-03-02T03:36:43;7.80;99.90
2893;DHT22;1456;51.840;12.184;2024-03-02T03:39:08;7.90;99.90
2893;DHT22;1456;51.840;12.184;2024-03-02T03:41:34;7.80;99.90
2893;DHT22;1456;51.840;12.184;2024-03-02T03:43:59;7.80;99.90
2893;DHT22;1456;51.840;12.184;2024-03-02T03:46:25;7.90;99.90
2893;DHT22;1456;51.840;12.184;2024-03-02T03:48:51;7.90;99.90
2893;DHT22;1456;51.840;12.184;2024-03-02T03:51:16;7.90;99.90
2893;DHT22;1456;51.840;12.184;2024-03-02T03:53:42;8.00;99.90
2893;DHT22;1456;51.840;12.184;2024-03-02T03:56:07;8.00;99.90
2893;DHT22;1456;51.840;12.184;2024-03-02T03:58:33;8.00;99.90
2893;DHT22;1456;51.840;12.184;2024-03-02T04:00:59;8.00;99.90
2893;DHT22;1456;51.840;12.184;2024-03-02T04:03:24;8.10;99.90
2893;DHT22;1456;51.840;12.184;2024-03-02T04:05:50;8.00;99.90
2893;DHT22;1456;51.840;12.184;2024-03-02T04:08:16;8.00;99.90
2893;DHT22;1456;51.840;12.184;2024-03-02T04:10:42;8.00;99.90
2893;DHT22;1456;51.840;12.184;2024-03-02T04:13:07;8.10;99.90
2893;DHT22;1456;51.840;12.184;2024-03-02T04:15:33;8.10;99.90
2893;DHT22;1456;51.840;12.184;2024-03-02T04:17:59;8.10;99.90
2893;DHT22;1456;51.840;12.184;2024-03-02T04:20:24;8.10;99.90
2893;DHT22;1456;51.840;12.184;2024-03-02T04:22:50;8.10;99.90
2893;DHT22;1456;51.840;12.184;2024-03-02T04:25:16;8.10;99.90
2893;DHT22;1456;51.840;12.184;2024-03-02T04:27:42;8.10;99.90
2893;DHT22;1456;51.840;12.184;2024-03-02T04:30:07;8.10;99.90
2893;DHT22;1456;51.840;12.184;2024-03-02T04:32:33;8.00;99.90
2893;DHT22;1456;51.840;12.184;2024-03-02T04:34:59;8.00;99.90
2893;DHT22;1456;51.840;12.184;2024-03-02T04:37:24;8.10;99.90
2893;DHT22;1456;51.840;12.184;2024-03-02T04:39:50;8.00;99.90
2893;DHT22;1456;51.840;12.184;2024-03-02T04:42:16;7.90;99.90
2893;DHT22;1456;51.840;12.184;2024-03-02T04:44:41;7.90;99.90
2893;DHT22;1456;51.840;12.184;2024-03-02T04:47:07;7.90;99.90
2893;DHT22;1456;51.840;12.184;2024-03-02T04:49:32;8.00;99.90
2893;DHT22;1456;51.840;12.184;2024-03-02T04:51:58;8.00;99.90
2893;DHT22;1456;51.840;12.184;2024-03-02T04:54:24;8.00;99.90
2893;DHT22;1456;51.840;12.184;2024-03-02T04:56:49;7.80;99.90
2893;DHT22;1456;51.840;12.184;2024-03-02T04:59:16;7.80;99.90
2893;DHT22;1456;51.840;12.184;2024-03-02T05:01:42;7.80;99.90
2893;DHT22;1456;51.840;12.184;2024-03-02T05:04:08;7.80;99.90
2893;DHT22;1456;51.840;12.184;2024-03-02T05:06:39;7.70;99.90
2893;DHT22;1456;51.840;12.184;2024-03-02T05:09:08;7.70;99.90
2893;DHT22;1456;51.840;12.184;2024-03-02T05:11:35;7.80;99.90
2893;DHT22;1456;51.840;12.184;2024-03-02T05:14:06;7.70;99.90
2893;DHT22;1456;51.840;12.184;2024-03-02T05:16:35;7.80;99.90
2893;DHT22;1456;51.840;12.184;2024-03-02T05:19:02;7.60;99.90
2893;DHT22;1456;51.840;12.184;2024-03-02T05:21:27;7.60;99.90
2893;DHT22;1456;51.840;12.184;2024-03-02T05:23:53;7.60;99.90
2893;DHT22;1456;51.840;12.184;2024-03-02T05:26:18;7.50;99.90
2893;DHT22;1456;51.840;12.184;2024-03-02T05:28:44;7.50;99.90
2893;DHT22;1456;51.840;12.184;2024-03-02T05:31:15;7.50;99.90
2893;DHT22;1456;51.840;12.184;2024-03-02T05:33:42;7.50;99.90
2893;DHT22;1456;51.840;12.184;2024-03-02T05:36:08;7.70;99.90
2893;DHT22;1456;51.840;12.184;2024-03-02T05:38:37;7.50;99.90
2893;DHT22;1456;51.840;12.184;2024-03-02T05:41:03;7.60;99.90
2893;DHT22;1456;51.840;12.184;2024-03-02T05:43:28;7.60;99.90
2893;DHT22;1456;51.840;12.184;2024-03-02T05:45:54;7.50;99.90
2893;DHT22;1456;51.840;12.184;2024-03-02T05:48:20;7.60;99.90
2893;DHT22;1456;51.840;12.184;2024-03-02T05:50:45;7.60;99.90
2893;DHT22;1456;51.840;12.184;2024-03-02T05:53:11;7.50;99.90
2893;DHT22;1456;51.840;12.184;2024-03-02T05:55:37;7.50;99.90
2893;DHT22;1456;51.840;12.184;2024-03-02T05:58:02;7.50;99.90
2893;DHT22;1456;51.840;12.184;2024-03-02T06:00:30;7.50;99.90
2893;DHT22;1456;51.840;12.184;2024-03-02T06:02:56;7.50;99.90
2893;DHT22;1456;51.840;12.184;2024-03-02T06:05:22;7.50;99.90
2893;DHT22;1456;51.840;12.184;2024-03-02T06:07:47;7.50;99.90
2893;DHT22;1456;51.840;12.184;2024-03-02T06:10:13;7.60;99.90
2893;DHT22;1456;51.840;12.184;2024-03-02T06:12:39;7.40;99.90
2893;DHT22;1456;51.840;12.184;2024-03-02T06:15:05;7.40;99.90
2893;DHT22;1456;51.840;12.184;2024-03-02T06:17:31;7.40;99.90
2893;DHT22;1456;51.840;12.184;2024-03-02T06:19:56;7.50;99.90
2893;DHT22;1456;51.840;12.184;2024-03-02T06:22:22;7.50;99.90
2893;DHT22;1456;51.840;12.184;2024-03-02T06:24:50;7.60;99.90
2893;DHT22;1456;51.840;12.184;2024-03-02T06:27:16;7.60;99.90
2893;DHT22;1456;51.840;12.184;2024-03-02T06:29:41;7.60;99.90
2893;DHT22;1456;51.840;12.184;2024-03-02T06:32:07;7.70;99.90
2893;DHT22;1456;51.840;12.184;2024-03-02T06:34:33;7.70;99.90
2893;DHT22;1456;51.840;12.184;2024-03-02T06:36:58;7.80;99.90
2893;DHT22;1456;51.840;12.184;2024-03-02T06:39:24;7.70;99.90
2893;DHT22;1456;51.840;12.184;2024-03-02T06:41:51;7.80;99.90
2893;DHT22;1456;51.840;12.184;2024-03-02T06:44:17;7.90;99.90
2893;DHT22;1456;51.840;12.184;2024-03-02T06:46:42;7.90;99.90
2893;DHT22;1456;51.840;12.184;2024-03-02T06:49:08;7.90;99.90
2893;DHT22;1456;51.840;12.184;2024-03-02T06:51:35;7.90;99.90
2893;DHT22;1456;51.840;12.184;2024-03-02T06:54:01;7.90;99.90
2893;DHT22;1456;51.840;12.184;2024-03-02T06:56:26;8.10;99.90
2893;DHT22;1456;51.840;12.184;2024-03-02T06:58:52;8.00;99.90
2893;DHT22;1456;51.840;12.184;2024-03-02T07:01:18;8.00;99.90
2893;DHT22;1456;51.840;12.184;2024-03-02T07:03:43;8.00;99.90
2893;DHT22;1456;51.840;12.184;2024-03-02T07:06:09;8.00;99.90
2893;DHT22;1456;51.840;12.184;2024-03-02T07:08:35;8.10;99.90
2893;DHT22;1456;51.840;12.184;2024-03-02T07:11:01;8.10;99.90
2893;DHT22;1456;51.840;12.184;2024-03-02T07:13:26;8.10;99.90
2893;DHT22;1456;51.840;12.184;2024-03-02T07:15:52;8.10;99.90
2893;DHT22;1456;51.840;12.184;2024-03-02T07:18:38;8.10;99.90
2893;DHT22;1456;51.840;12.184;2024-03-02T07:21:07;8.30;99.90
2893;DHT22;1456;51.840;12.184;2024-03-02T07:23:33;8.20;99.90
2893;DHT22;1456;51.840;12.184;2024-03-02T07:25:59;8.40;99.90
2893;DHT22;1456;51.840;12.184;2024-03-02T07:28:27;8.30;99.90
2893;DHT22;1456;51.840;12.184;2024-03-02T07:30:59;8.40;99.90
2893;DHT22;1456;51.840;12.184;2024-03-02T07:33:25;8.50;99.90
2893;DHT22;1456;51.840;12.184;2024-03-02T07:35:51;8.50;99.90
2893;DHT22;1456;51.840;12.184;2024-03-02T07:38:16;8.50;99.90
2893;DHT22;1456;51.840;12.184;2024-03-02T07:40:42;8.80;99.90
2893;DHT22;1456;51.840;12.184;2024-03-02T07:43:08;8.80;99.90
2893;DHT22;1456;51.840;12.184;2024-03-02T07:45:34;9.00;99.90
2893;DHT22;1456;51.840;12.184;2024-03-02T07:48:01;9.20;99.90
2893;DHT22;1456;51.840;12.184;2024-03-02T07:50:29;9.40;99.90
2893;DHT22;1456;51.840;12.184;2024-03-02T07:52:55;9.60;99.90
2893;DHT22;1456;51.840;12.184;2024-03-02T07:55:21;9.90;99.90
2893;DHT22;1456;51.840;12.184;2024-03-02T07:57:49;10.00;99.90
2893;DHT22;1456;51.840;12.184;2024-03-02T08:00:15;10.20;99.90
2893;DHT22;1456;51.840;12.184;2024-03-02T08:02:41;10.40;99.90
2893;DHT22;1456;51.840;12.184;2024-03-02T08:05:08;10.50;99.90
2893;DHT22;1456;51.840;12.184;2024-03-02T08:07:34;10.60;99.90
2893;DHT22;1456;51.840;12.184;2024-03-02T08:10:00;10.70;99.90
2893;DHT22;1456;51.840;12.184;2024-03-02T08:12:25;10.70;99.90
2893;DHT22;1456;51.840;12.184;2024-03-02T08:14:51;10.70;99.90
2893;DHT22;1456;51.840;12.184;2024-03-02T08:17:17;10.70;99.90
2893;DHT22;1456;51.840;12.184;2024-03-02T08:19:43;10.80;99.90
2893;DHT22;1456;51.840;12.184;2024-03-02T08:22:09;10.90;99.90
2893;DHT22;1456;51.840;12.184;2024-03-02T08:24:35;10.90;99.90
2893;DHT22;1456;51.840;12.184;2024-03-02T08:27:01;10.90;99.90
2893;DHT22;1456;51.840;12.184;2024-03-02T08:29:27;10.80;99.90
2893;DHT22;1456;51.840;12.184;2024-03-02T08:31:53;10.90;99.90
2893;DHT22;1456;51.840;12.184;2024-03-02T08:34:19;11.00;99.90
2893;DHT22;1456;51.840;12.184;2024-03-02T08:36:46;11.00;99.90
2893;DHT22;1456;51.840;12.184;2024-03-02T08:39:11;11.10;99.90
2893;DHT22;1456;51.840;12.184;2024-03-02T08:41:47;11.20;99.90
2893;DHT22;1456;51.840;12.184;2024-03-02T08:44:13;11.20;99.90
2893;DHT22;1456;51.840;12.184;2024-03-02T08:46:39;11.50;99.90
2893;DHT22;1456;51.840;12.184;2024-03-02T08:49:06;11.50;99.90
2893;DHT22;1456;51.840;12.184;2024-03-02T08:51:32;11.60;99.90
2893;DHT22;1456;51.840;12.184;2024-03-02T08:53:58;11.80;99.90
2893;DHT22;1456;51.840;12.184;2024-03-02T08:56:24;11.80;99.90
2893;DHT22;1456;51.840;12.184;2024-03-02T08:58:50;11.90;99.90
2893;DHT22;1456;51.840;12.184;2024-03-02T09:01:16;11.90;99.90
2893;DHT22;1456;51.840;12.184;2024-03-02T09:03:42;12.00;99.90
2893;DHT22;1456;51.840;12.184;2024-03-02T09:06:12;12.20;99.90
2893;DHT22;1456;51.840;12.184;2024-03-02T09:08:38;12.40;99.90
2893;DHT22;1456;51.840;12.184;2024-03-02T09:11:05;12.50;99.90
2893;DHT22;1456;51.840;12.184;2024-03-02T09:13:31;12.70;99.90
2893;DHT22;1456;51.840;12.184;2024-03-02T09:15:57;12.80;99.90
2893;DHT22;1456;51.840;12.184;2024-03-02T09:18:23;13.00;99.90
2893;DHT22;1456;51.840;12.184;2024-03-02T09:20:48;13.10;99.90
2893;DHT22;1456;51.840;12.184;2024-03-02T09:23:14;13.10;99.90
2893;DHT22;1456;51.840;12.184;2024-03-02T09:25:39;13.20;99.90
2893;DHT22;1456;51.840;12.184;2024-03-02T09:28:05;13.20;99.90
2893;DHT22;1456;51.840;12.184;2024-03-02T09:30:32;13.30;99.90
2893;DHT22;1456;51.840;12.184;2024-03-02T09:32:58;13.20;99.90
2893;DHT22;1456;51.840;12.184;2024-03-02T09:35:23;13.20;99.90
2893;DHT22;1456;51.840;12.184;2024-03-02T09:37:49;13.20;99.90
2893;DHT22;1456;51.840;12.184;2024-03-02T09:40:15;13.20;99.90
2893;DHT22;1456;51.840;12.184;2024-03-02T09:42:42;13.10;99.90
2893;DHT22;1456;51.840;12.184;2024-03-02T09:45:09;13.20;99.90
2893;DHT22;1456;51.840;12.184;2024-03-02T09:47:35;13.10;99.90
2893;DHT22;1456;51.840;12.184;2024-03-02T09:50:00;13.10;99.90
2893;DHT22;1456;51.840;12.184;2024-03-02T09:52:26;13.20;99.90
2893;DHT22;1456;51.840;12.184;2024-03-02T09:54:52;13.20;99.90
2893;DHT22;1456;51.840;12.184;2024-03-02T09:57:18;13.50;99.90
2893;DHT22;1456;51.840;12.184;2024-03-02T09:59:43;13.60;99.90
2893;DHT22;1456;51.840;12.184;2024-03-02T10:02:11;13.80;99.90
2893;DHT22;1456;51.840;12.184;2024-03-02T10:04:36;14.10;99.90
2893;DHT22;1456;51.840;12.184;2024-03-02T10:07:12;14.30;99.90
2893;DHT22;1456;51.840;12.184;2024-03-02T10:09:37;14.40;99.90
2893;DHT22;1456;51.840;12.184;2024-03-02T10:12:08;14.60;99.90
2893;DHT22;1456;51.840;12.184;2024-03-02T10:14:34;14.70;99.90
2893;DHT22;1456;51.840;12.184;2024-03-02T10:17:04;14.80;99.90
2893;DHT22;1456;51.840;12.184;2024-03-02T10:19:31;14.90;99.90
2893;DHT22;1456;51.840;12.184;2024-03-02T10:21:59;14.80;99.90
2893;DHT22;1456;51.840;12.184;2024-03-02T10:24:25;14.90;99.90
2893;DHT22;1456;51.840;12.184;2024-03-02T10:26:52;14.80;99.90
2893;DHT22;1456;51.840;12.184;2024-03-02T10:29:18;15.00;99.90
2893;DHT22;1456;51.840;12.184;2024-03-02T10:31:45;15.20;99.90
2893;DHT22;1456;51.840;12.184;2024-03-02T10:34:14;15.30;99.90
2893;DHT22;1456;51.840;12.184;2024-03-02T10:36:42;15.50;99.90
2893;DHT22;1456;51.840;12.184;2024-03-02T10:39:09;16.00;99.90
2893;DHT22;1456;51.840;12.184;2024-03-02T10:41:36;16.10;99.90
2893;DHT22;1456;51.840;12.184;2024-03-02T10:44:06;16.40;99.90
2893;DHT22;1456;51.840;12.184;2024-03-02T10:46:34;16.50;99.90
2893;DHT22;1456;51.840;12.184;2024-03-02T10:49:01;16.80;99.90
2893;DHT22;1456;51.840;12.184;2024-03-02T10:51:28;17.10;99.90
2893;DHT22;1456;51.840;12.184;2024-03-02T10:53:57;17.30;99.90
2893;DHT22;1456;51.840;12.184;2024-03-02T10:56:32;17.60;99.90
2893;DHT22;1456;51.840;12.184;2024-03-02T10:59:03;17.90;99.90
2893;DHT22;1456;51.840;12.184;2024-03-02T11:01:32;17.80;99.90
2893;DHT22;1456;51.840;12.184;2024-03-02T11:03:59;17.60;99.90
2893;DHT22;1456;51.840;12.184;2024-03-02T11:06:28;17.70;99.90
2893;DHT22;1456;51.840;12.184;2024-03-02T11:08:56;17.80;99.90
2893;DHT22;1456;51.840;12.184;2024-03-02T11:11:29;17.90;99.90
2893;DHT22;1456;51.840;12.184;2024-03-02T11:13:57;17.90;99.80
2893;DHT22;1456;51.840;12.184;2024-03-02T11:16:34;18.20;99.60
2893;DHT22;1456;51.840;12.184;2024-03-02T11:19:08;18.20;98.50
2893;DHT22;1456;51.840;12.184;2024-03-02T11:21:35;18.10;98.10
2893;DHT22;1456;51.840;12.184;2024-03-02T11:26:47;18.60;98.80
2893;DHT22;1456;51.840;12.184;2024-03-02T11:32:05;19.60;96.30
2893;DHT22;1456;51.840;12.184;2024-03-02T11:34:35;20.10;96.10
2893;DHT22;1456;51.840;12.184;2024-03-02T11:37:02;20.40;96.00
2893;DHT22;1456;51.840;12.184;2024-03-02T11:39:28;21.00;95.10
2893;DHT22;1456;51.840;12.184;2024-03-02T11:41:57;21.30;94.00
2893;DHT22;1456;51.840;12.184;2024-03-02T11:44:29;21.40;92.70
2893;DHT22;1456;51.840;12.184;2024-03-02T11:46:59;21.40;93.10
2893;DHT22;1456;51.840;12.184;2024-03-02T11:52:07;22.40;92.50
2893;DHT22;1456;51.840;12.184;2024-03-02T11:54:33;22.80;91.10
2893;DHT22;1456;51.840;12.184;2024-03-02T11:57:02;23.40;91.80
2893;DHT22;1456;51.840;12.184;2024-03-02T11:59:29;23.60;91.10
2893;DHT22;1456;51.840;12.184;2024-03-02T12:01:55;23.40;90.00
2893;DHT22;1456;51.840;12.184;2024-03-02T12:04:23;24.00;89.90
2893;DHT22;1456;51.840;12.184;2024-03-02T12:06:55;24.50;90.00
2893;DHT22;1456;51.840;12.184;2024-03-02T12:09:21;24.90;87.20
2893;DHT22;1456;51.840;12.184;2024-03-02T12:11:47;25.50;86.70
2893;DHT22;1456;51.840;12.184;2024-03-02T12:14:13;26.00;85.00
2893;DHT22;1456;51.840;12.184;2024-03-02T12:16:38;25.90;81.70
2893;DHT22;1456;51.840;12.184;2024-03-02T12:19:05;25.80;84.10
2893;DHT22;1456;51.840;12.184;2024-03-02T12:21:31;25.60;83.00
2893;DHT22;1456;51.840;12.184;2024-03-02T12:23:57;25.90;83.60
2893;DHT22;1456;51.840;12.184;2024-03-02T12:26:23;26.00;79.90
2893;DHT22;1456;51.840;12.184;2024-03-02T12:28:49;25.60;79.00
2893;DHT22;1456;51.840;12.184;2024-03-02T12:31:15;25.90;79.60
2893;DHT22;1456;51.840;12.184;2024-03-02T12:33:41;26.40;80.10
2893;DHT22;1456;51.840;12.184;2024-03-02T12:36:10;26.90;79.20
2893;DHT22;1456;51.840;12.184;2024-03-02T12:38:37;27.00;78.10
2893;DHT22;1456;51.840;12.184;2024-03-02T12:41:08;27.00;77.40
2893;DHT22;1456;51.840;12.184;2024-03-02T12:43:33;27.40;75.40
2893;DHT22;1456;51.840;12.184;2024-03-02T12:45:59;27.80;76.60
2893;DHT22;1456;51.840;12.184;2024-03-02T12:48:25;28.10;75.00
2893;DHT22;1456;51.840;12.184;2024-03-02T12:50:50;28.60;72.90
2893;DHT22;1456;51.840;12.184;2024-03-02T12:53:16;29.00;73.00
2893;DHT22;1456;51.840;12.184;2024-03-02T12:55:42;29.20;72.80
2893;DHT22;1456;51.840;12.184;2024-03-02T12:58:19;29.30;70.70
2893;DHT22;1456;51.840;12.184;2024-03-02T13:00:46;29.60;70.50
2893;DHT22;1456;51.840;12.184;2024-03-02T13:03:12;29.50;68.10
2893;DHT22;1456;51.840;12.184;2024-03-02T13:05:39;29.10;68.80
2893;DHT22;1456;51.840;12.184;2024-03-02T13:08:06;29.00;68.40
2893;DHT22;1456;51.840;12.184;2024-03-02T13:10:32;29.00;66.90
2893;DHT22;1456;51.840;12.184;2024-03-02T13:12:58;29.00;67.60
2893;DHT22;1456;51.840;12.184;2024-03-02T13:15:26;29.30;67.20
2893;DHT22;1456;51.840;12.184;2024-03-02T13:17:52;29.10;66.30
2893;DHT22;1456;51.840;12.184;2024-03-02T13:20:17;28.50;65.50
2893;DHT22;1456;51.840;12.184;2024-03-02T13:22:44;28.40;65.50
2893;DHT22;1456;51.840;12.184;2024-03-02T13:25:10;28.20;64.30
2893;DHT22;1456;51.840;12.184;2024-03-02T13:27:35;27.80;65.00
2893;DHT22;1456;51.840;12.184;2024-03-02T13:30:04;27.70;65.00
2893;DHT22;1456;51.840;12.184;2024-03-02T13:32:34;27.40;65.20
2893;DHT22;1456;51.840;12.184;2024-03-02T13:35:00;26.80;64.20
2893;DHT22;1456;51.840;12.184;2024-03-02T13:37:25;26.70;65.80
2893;DHT22;1456;51.840;12.184;2024-03-02T13:39:51;26.90;64.30
2893;DHT22;1456;51.840;12.184;2024-03-02T13:42:16;27.40;64.40
2893;DHT22;1456;51.840;12.184;2024-03-02T13:44:45;27.90;63.70
2893;DHT22;1456;51.840;12.184;2024-03-02T13:47:13;28.30;63.90
2893;DHT22;1456;51.840;12.184;2024-03-02T13:49:39;28.60;62.80
2893;DHT22;1456;51.840;12.184;2024-03-02T13:52:09;29.10;62.40
2893;DHT22;1456;51.840;12.184;2024-03-02T13:54:41;29.70;61.60
2893;DHT22;1456;51.840;12.184;2024-03-02T13:57:08;30.10;60.10
2893;DHT22;1456;51.840;12.184;2024-03-02T13:59:34;30.20;59.90
2893;DHT22;1456;51.840;12.184;2024-03-02T14:02:01;30.00;60.40
2893;DHT22;1456;51.840;12.184;2024-03-02T14:04:27;30.20;58.80
2893;DHT22;1456;51.840;12.184;2024-03-02T14:06:53;30.10;58.90
2893;DHT22;1456;51.840;12.184;2024-03-02T14:09:18;30.20;59.30
2893;DHT22;1456;51.840;12.184;2024-03-02T14:11:46;30.70;58.90
2893;DHT22;1456;51.840;12.184;2024-03-02T14:14:11;30.50;57.50
2893;DHT22;1456;51.840;12.184;2024-03-02T14:16:37;30.50;58.00
2893;DHT22;1456;51.840;12.184;2024-03-02T14:19:03;30.40;57.20
2893;DHT22;1456;51.840;12.184;2024-03-02T14:21:30;30.10;56.80
2893;DHT22;1456;51.840;12.184;2024-03-02T14:23:55;30.00;56.20
2893;DHT22;1456;51.840;12.184;2024-03-02T14:26:21;29.80;56.80
2893;DHT22;1456;51.840;12.184;2024-03-02T14:28:47;29.90;56.80
2893;DHT22;1456;51.840;12.184;2024-03-02T14:31:12;29.80;55.50
2893;DHT22;1456;51.840;12.184;2024-03-02T14:33:38;29.60;53.70
2893;DHT22;1456;51.840;12.184;2024-03-02T14:36:04;29.00;55.30
2893;DHT22;1456;51.840;12.184;2024-03-02T14:38:30;28.90;56.10
2893;DHT22;1456;51.840;12.184;2024-03-02T14:40:56;27.90;56.00
2893;DHT22;1456;51.840;12.184;2024-03-02T14:43:22;27.10;56.00
2893;DHT22;1456;51.840;12.184;2024-03-02T14:45:48;26.50;57.20
2893;DHT22;1456;51.840;12.184;2024-03-02T14:48:14;26.20;57.50
2893;DHT22;1456;51.840;12.184;2024-03-02T14:50:39;26.20;57.50
2893;DHT22;1456;51.840;12.184;2024-03-02T14:53:05;26.50;58.00
2893;DHT22;1456;51.840;12.184;2024-03-02T14:55:33;26.80;57.40
2893;DHT22;1456;51.840;12.184;2024-03-02T14:57:59;26.90;57.30
2893;DHT22;1456;51.840;12.184;2024-03-02T15:00:25;26.90;57.70
2893;DHT22;1456;51.840;12.184;2024-03-02T15:02:51;26.70;57.30
2893;DHT22;1456;51.840;12.184;2024-03-02T15:05:17;26.10;56.70
2893;DHT22;1456;51.840;12.184;2024-03-02T15:07:43;25.90;57.00
2893;DHT22;1456;51.840;12.184;2024-03-02T15:10:09;25.90;57.60
2893;DHT22;1456;51.840;12.184;2024-03-02T15:12:34;25.60;57.80
2893;DHT22;1456;51.840;12.184;2024-03-02T15:15:00;25.10;58.60
2893;DHT22;1456;51.840;12.184;2024-03-02T15:17:26;24.40;58.70
2893;DHT22;1456;51.840;12.184;2024-03-02T15:19:52;23.60;59.60
2893;DHT22;1456;51.840;12.184;2024-03-02T15:22:17;23.00;59.90
2893;DHT22;1456;51.840;12.184;2024-03-02T15:24:43;22.20;60.50
2893;DHT22;1456;51.840;12.184;2024-03-02T15:27:09;21.30;62.60
2893;DHT22;1456;51.840;12.184;2024-03-02T15:29:35;20.60;64.10
2893;DHT22;1456;51.840;12.184;2024-03-02T15:32:02;19.90;65.80
2893;DHT22;1456;51.840;12.184;2024-03-02T15:34:30;19.50;67.80
2893;DHT22;1456;51.840;12.184;2024-03-02T15:36:55;19.00;68.40
2893;DHT22;1456;51.840;12.184;2024-03-02T15:39:21;18.70;69.80
2893;DHT22;1456;51.840;12.184;2024-03-02T15:41:47;18.40;71.50
2893;DHT22;1456;51.840;12.184;2024-03-02T15:44:12;18.00;73.10
2893;DHT22;1456;51.840;12.184;2024-03-02T15:46:38;17.60;75.00
2893;DHT22;1456;51.840;12.184;2024-03-02T15:49:04;17.30;76.50
2893;DHT22;1456;51.840;12.184;2024-03-02T15:51:31;17.00;78.30
2893;DHT22;1456;51.840;12.184;2024-03-02T15:53:59;16.70;80.90
2893;DHT22;1456;51.840;12.184;2024-03-02T15:56:24;16.60;82.00
2893;DHT22;1456;51.840;12.184;2024-03-02T15:58:50;16.50;83.10
2893;DHT22;1456;51.840;12.184;2024-03-02T16:01:16;16.30;83.60